createdAt,value
2023-05-08T00:01:20.955Z,12.46
2023-05-08T00:03:47.610Z,12.27
2023-05-08T00:06:14.335Z,12.48
2023-05-08T00:08:42.006Z,13.23
2023-05-08T00:11:08.551Z,13.56
2023-05-08T00:13:35.322Z,13.39
2023-05-08T00:16:01.919Z,12.80
2023-05-08T00:18:28.544Z,13.26
2023-05-08T00:20:55.071Z,13.07
2023-05-08T00:23:22.352Z,13.63
2023-05-08T00:25:48.869Z,13.29
2023-05-08T00:28:15.304Z,13.32
2023-05-08T00:30:42.722Z,13.08
2023-05-08T00:33:09.709Z,13.24
2023-05-08T00:35:36.481Z,13.28
2023-05-08T00:38:03.291Z,12.77
2023-05-08T00:40:29.733Z,12.40
2023-05-08T00:42:56.254Z,12.67
2023-05-08T00:45:23.000Z,12.35
2023-05-08T00:47:50.703Z,12.50
2023-05-08T00:50:18.131Z,11.65
2023-05-08T00:52:46.352Z,12.60
2023-05-08T00:55:13.047Z,12.31
2023-05-08T00:57:39.860Z,12.54
2023-05-08T01:00:07.704Z,12.54
2023-05-08T01:02:35.788Z,13.14
2023-05-08T01:05:03.676Z,13.23
2023-05-08T01:07:30.244Z,12.86
2023-05-08T01:09:56.976Z,12.90
2023-05-08T01:12:29.257Z,13.45
2023-05-08T01:15:14.723Z,13.35
2023-05-08T01:17:50.378Z,13.33
2023-05-08T01:20:19.755Z,12.90
2023-05-08T01:22:46.414Z,12.71
2023-05-08T01:25:36.180Z,13.77
2023-05-08T01:28:18.759Z,13.65
2023-05-08T01:31:04.173Z,13.54
2023-05-08T01:33:37.158Z,14.19
2023-05-08T01:36:15.063Z,13.36
2023-05-08T01:39:00.157Z,14.25
2023-05-08T01:41:30.766Z,15.05
2023-05-08T01:44:06.569Z,15.09
2023-05-08T01:46:34.344Z,14.78
2023-05-08T01:49:07.888Z,14.81
2023-05-08T01:51:38.589Z,15.03
2023-05-08T01:54:10.009Z,15.44
2023-05-08T01:56:39.023Z,14.78
2023-05-08T01:59:07.769Z,14.57
2023-05-08T02:01:34.915Z,14.37
2023-05-08T02:04:03.831Z,14.81
2023-05-08T02:06:32.550Z,14.81
2023-05-08T02:09:00.824Z,15.07
2023-05-08T02:11:29.284Z,14.89
2023-05-08T02:13:59.326Z,15.20
2023-05-08T02:16:27.513Z,16.30
2023-05-08T02:18:55.588Z,15.84
2023-05-08T02:21:23.648Z,16.76
2023-05-08T02:23:52.252Z,17.10
2023-05-08T02:26:21.549Z,16.96
2023-05-08T02:28:49.601Z,17.80
2023-05-08T02:31:17.741Z,19.28
2023-05-08T02:33:46.069Z,21.50
2023-05-08T02:36:14.873Z,22.33
2023-05-08T02:38:44.026Z,22.34
2023-05-08T02:41:13.026Z,21.66
2023-05-08T02:43:40.249Z,22.91
2023-05-08T02:46:16.152Z,21.18
2023-05-08T02:48:58.906Z,21.26
2023-05-08T02:51:29.308Z,22.76
2023-05-08T02:53:58.791Z,23.14
2023-05-08T02:56:35.760Z,23.87
2023-05-08T02:59:19.115Z,23.23
2023-05-08T03:02:09.543Z,24.82
2023-05-08T03:04:40.055Z,24.24
2023-05-08T03:07:07.018Z,23.40
2023-05-08T03:09:44.689Z,23.02
2023-05-08T03:12:14.651Z,22.96
2023-05-08T03:14:46.135Z,22.95
2023-05-08T03:17:17.130Z,23.35
2023-05-08T03:19:48.559Z,22.04
2023-05-08T03:22:16.124Z,22.33
2023-05-08T03:24:44.210Z,21.09
2023-05-08T03:27:11.440Z,22.47
2023-05-08T03:29:39.886Z,22.48
2023-05-08T03:32:08.236Z,24.02
2023-05-08T03:34:36.136Z,24.45
2023-05-08T03:37:03.416Z,25.01
2023-05-08T03:39:29.952Z,24.99
2023-05-08T03:41:56.901Z,24.35
2023-05-08T03:44:24.357Z,24.13
2023-05-08T03:46:55.277Z,24.79
2023-05-08T03:49:25.091Z,24.69
2023-05-08T03:51:52.888Z,23.64
2023-05-08T03:54:19.420Z,27.22
2023-05-08T03:56:47.901Z,27.46
2023-05-08T03:59:17.632Z,28.11
2023-05-08T04:02:04.419Z,28.63
2023-05-08T04:04:42.517Z,27.83
2023-05-08T04:07:14.061Z,30.43
2023-05-08T04:09:52.859Z,32.51
2023-05-08T04:12:27.574Z,35.33
2023-05-08T04:15:02.763Z,35.64
2023-05-08T04:17:40.292Z,35.80
2023-05-08T04:20:09.852Z,37.30
2023-05-08T04:22:39.505Z,38.39
2023-05-08T04:25:08.063Z,37.49
2023-05-08T04:27:35.517Z,36.40
2023-05-08T04:30:02.750Z,37.94
2023-05-08T04:32:30.909Z,40.77
2023-05-08T04:34:59.058Z,45.24
2023-05-08T04:37:29.424Z,48.47
2023-05-08T04:39:55.976Z,50.60
2023-05-08T04:42:22.603Z,50.55
2023-05-08T04:44:49.149Z,50.83
2023-05-08T04:47:15.894Z,51.45
2023-05-08T04:49:42.358Z,52.04
2023-05-08T04:52:08.886Z,51.82
2023-05-08T04:54:35.509Z,53.78
2023-05-08T04:57:02.020Z,52.73
2023-05-08T04:59:29.474Z,54.80
2023-05-08T05:01:56.480Z,54.38
2023-05-08T05:04:23.257Z,52.34
2023-05-08T05:06:49.720Z,52.79
2023-05-08T05:09:16.379Z,46.86
2023-05-08T05:11:42.879Z,43.89
2023-05-08T05:14:09.388Z,43.25
2023-05-08T05:16:36.414Z,41.29
2023-05-08T05:19:03.525Z,39.66
2023-05-08T05:21:30.435Z,39.69
2023-05-08T05:23:56.898Z,39.25
2023-05-08T05:26:23.495Z,39.82
2023-05-08T05:28:49.949Z,38.54
2023-05-08T05:31:16.795Z,38.36
2023-05-08T05:33:43.361Z,38.11
2023-05-08T05:36:09.906Z,39.24
2023-05-08T05:38:36.737Z,37.06
2023-05-08T05:41:03.531Z,37.20
2023-05-08T05:43:30.065Z,38.27
2023-05-08T05:45:56.899Z,37.66
2023-05-08T05:48:23.358Z,37.38
2023-05-08T05:50:50.040Z,37.46
2023-05-08T05:53:16.597Z,38.23
2023-05-08T05:55:43.078Z,38.77
2023-05-08T05:58:09.569Z,40.48
2023-05-08T06:00:36.104Z,40.64
2023-05-08T06:03:03.309Z,42.24
2023-05-08T06:05:30.227Z,42.53
2023-05-08T06:07:57.226Z,42.47
2023-05-08T06:10:23.811Z,42.29
2023-05-08T06:12:50.426Z,41.02
2023-05-08T06:15:17.101Z,43.01
2023-05-08T06:17:43.802Z,42.66
2023-05-08T06:20:10.444Z,44.25
2023-05-08T06:22:39.312Z,45.02
2023-05-08T06:25:07.192Z,43.69
2023-05-08T06:27:34.804Z,43.51
2023-05-08T06:30:01.869Z,43.53
2023-05-08T06:32:28.611Z,42.74
2023-05-08T06:34:55.091Z,43.07
2023-05-08T06:37:21.703Z,43.97
2023-05-08T06:39:50.570Z,44.10
2023-05-08T06:42:21.166Z,47.14
2023-05-08T06:44:47.836Z,46.27
2023-05-08T06:47:14.338Z,45.94
2023-05-08T06:49:40.831Z,45.03
2023-05-08T06:52:07.306Z,45.06
2023-05-08T06:54:33.832Z,44.79
2023-05-08T06:57:00.428Z,44.89
2023-05-08T06:59:26.967Z,45.65
2023-05-08T07:01:53.462Z,45.71
2023-05-08T07:04:19.988Z,47.31
2023-05-08T07:06:46.695Z,49.17
2023-05-08T07:09:13.259Z,48.79
2023-05-08T07:11:39.811Z,48.38
2023-05-08T07:14:06.416Z,53.85
2023-05-08T07:16:33.532Z,55.21
2023-05-08T07:19:00.316Z,54.78
2023-05-08T07:21:26.912Z,55.98
2023-05-08T07:23:54.616Z,55.65
2023-05-08T07:26:21.695Z,58.04
2023-05-08T07:28:48.683Z,57.14
2023-05-08T07:31:15.179Z,55.20
2023-05-08T07:33:41.646Z,54.01
2023-05-08T07:36:08.470Z,53.40
2023-05-08T07:38:35.035Z,56.79
2023-05-08T07:41:02.138Z,52.86
2023-05-08T07:43:28.725Z,54.22
2023-05-08T07:45:55.320Z,53.62
2023-05-08T07:48:21.856Z,53.72
2023-05-08T07:50:49.435Z,55.74
2023-05-08T07:53:16.072Z,56.31
2023-05-08T07:55:42.590Z,53.36
2023-05-08T07:58:09.145Z,52.28
2023-05-08T08:00:36.585Z,52.09
2023-05-08T08:03:03.621Z,53.80
2023-05-08T08:05:30.262Z,56.46
2023-05-08T08:07:56.716Z,56.55
2023-05-08T08:10:23.337Z,58.35
2023-05-08T08:12:49.962Z,57.76
2023-05-08T08:15:16.615Z,58.16
2023-05-08T08:17:43.431Z,59.84
2023-05-08T08:20:10.097Z,58.94
2023-05-08T08:22:37.646Z,60.20
2023-05-08T08:25:04.222Z,59.81
2023-05-08T08:27:30.723Z,58.80
2023-05-08T08:30:15.148Z,57.13
2023-05-08T08:32:43.650Z,57.77
2023-05-08T08:35:10.408Z,59.60
2023-05-08T08:37:37.088Z,61.91
2023-05-08T08:40:03.775Z,59.00
2023-05-08T08:42:30.960Z,58.88
2023-05-08T08:44:57.562Z,62.61
2023-05-08T08:47:28.069Z,61.88
2023-05-08T08:49:54.919Z,61.72
2023-05-08T08:52:28.349Z,60.74
2023-05-08T08:54:57.350Z,60.47
2023-05-08T08:57:27.546Z,59.86
2023-05-08T08:59:55.529Z,59.50
2023-05-08T09:02:23.556Z,58.41
2023-05-08T09:04:50.360Z,58.50
2023-05-08T09:07:17.932Z,58.87
2023-05-08T09:09:45.956Z,57.21
2023-05-08T09:12:15.683Z,56.19
2023-05-08T09:14:42.404Z,57.65
2023-05-08T09:17:09.974Z,56.76
2023-05-08T09:19:36.946Z,56.52
2023-05-08T09:22:04.191Z,53.86
2023-05-08T09:24:49.264Z,53.48
2023-05-08T09:27:23.870Z,53.60
2023-05-08T09:30:01.868Z,52.20
2023-05-08T09:32:32.669Z,54.78
2023-05-08T09:34:59.812Z,54.76
2023-05-08T09:37:27.200Z,56.64
2023-05-08T09:39:54.289Z,56.08
2023-05-08T09:42:21.067Z,56.05
2023-05-08T09:44:52.147Z,56.31
2023-05-08T09:47:25.421Z,57.00
2023-05-08T09:49:57.881Z,59.18
2023-05-08T09:52:24.924Z,56.16
2023-05-08T09:55:05.791Z,55.48
2023-05-08T09:57:33.899Z,56.15
2023-05-08T10:00:01.636Z,57.71
2023-05-08T10:02:28.345Z,57.84
2023-05-08T10:04:55.038Z,55.02
2023-05-08T10:07:28.733Z,54.09
2023-05-08T10:10:01.115Z,55.54
2023-05-08T10:12:28.441Z,55.74
2023-05-08T10:14:55.622Z,56.06
2023-05-08T10:17:27.530Z,53.18
2023-05-08T10:19:59.121Z,54.17
2023-05-08T10:22:26.461Z,50.95
2023-05-08T10:24:56.490Z,51.14
2023-05-08T10:27:30.506Z,51.01
2023-05-08T10:30:01.192Z,50.53
2023-05-08T10:32:28.616Z,49.60
2023-05-08T10:35:03.427Z,49.19
2023-05-08T10:37:31.019Z,44.54
2023-05-08T10:39:58.788Z,47.82
2023-05-08T10:42:26.120Z,47.76
2023-05-08T10:44:54.461Z,43.81
2023-05-08T10:47:29.417Z,48.24
2023-05-08T10:50:09.452Z,48.17
2023-05-08T10:52:46.621Z,48.74
2023-05-08T10:55:29.894Z,46.97
2023-05-08T10:58:15.038Z,43.81
2023-05-08T11:00:44.638Z,44.93
2023-05-08T11:03:23.493Z,42.37
2023-05-08T11:05:51.750Z,41.50
2023-05-08T11:08:19.757Z,42.57
2023-05-08T11:10:51.967Z,43.40
2023-05-08T11:13:20.392Z,38.46
2023-05-08T11:15:50.878Z,40.73
2023-05-08T11:18:17.781Z,40.29
2023-05-08T11:20:58.313Z,37.60
2023-05-08T11:23:26.746Z,35.50
2023-05-08T11:26:02.767Z,37.02
2023-05-08T11:28:40.204Z,35.98
2023-05-08T11:31:08.372Z,35.24
2023-05-08T11:33:41.009Z,35.81
2023-05-08T11:36:14.793Z,32.74
2023-05-08T11:38:43.620Z,35.32
2023-05-08T11:41:24.267Z,34.59
2023-05-08T11:43:53.920Z,35.28
2023-05-08T11:46:21.562Z,35.71
2023-05-08T11:48:48.537Z,32.12
2023-05-08T11:51:17.616Z,33.29
2023-05-08T11:53:44.921Z,33.91
2023-05-08T11:56:11.642Z,32.85
2023-05-08T11:58:38.361Z,32.94
2023-05-08T12:01:04.990Z,30.13
2023-05-08T12:03:32.387Z,31.55
2023-05-08T12:05:59.850Z,30.89
2023-05-08T12:08:26.785Z,32.87
2023-05-08T12:10:56.618Z,30.70
2023-05-08T12:13:25.005Z,33.91
2023-05-08T12:15:56.012Z,36.02
2023-05-08T12:18:23.337Z,36.85
2023-05-08T12:20:54.016Z,35.36
2023-05-08T12:23:20.911Z,33.74
2023-05-08T12:25:47.572Z,34.99
2023-05-08T12:28:14.181Z,34.73
2023-05-08T12:30:41.069Z,35.59
2023-05-08T12:33:08.502Z,34.67
2023-05-08T12:35:35.279Z,37.16
2023-05-08T12:38:03.493Z,39.64
2023-05-08T12:40:31.891Z,39.66
2023-05-08T12:43:01.063Z,40.61
2023-05-08T12:45:29.440Z,40.71
2023-05-08T12:48:00.769Z,39.34
2023-05-08T12:50:27.428Z,38.71
2023-05-08T12:52:54.174Z,39.96
2023-05-08T12:55:21.854Z,40.08
2023-05-08T12:57:48.896Z,39.15
2023-05-08T13:00:18.380Z,39.70
2023-05-08T13:02:52.354Z,38.47
2023-05-08T13:05:23.440Z,39.79
2023-05-08T13:07:50.399Z,40.06
2023-05-08T13:10:20.189Z,39.10
2023-05-08T13:12:48.974Z,41.48
2023-05-08T13:15:15.729Z,40.45
2023-05-08T13:17:42.675Z,39.15
2023-05-08T13:20:09.765Z,40.01
2023-05-08T13:22:36.341Z,39.41
2023-05-08T13:25:03.611Z,39.53
2023-05-08T13:27:30.128Z,35.32
2023-05-08T13:29:56.691Z,35.21
2023-05-08T13:32:23.427Z,37.08
2023-05-08T13:34:51.997Z,32.84
2023-05-08T13:37:20.616Z,29.65
2023-05-08T13:39:47.166Z,28.36
2023-05-08T13:42:13.643Z,28.66
2023-05-08T13:44:40.675Z,36.14
2023-05-08T13:47:07.214Z,35.17
2023-05-08T13:49:33.692Z,36.99
2023-05-08T13:52:00.291Z,35.81
2023-05-08T13:54:27.230Z,36.31
2023-05-08T13:56:54.001Z,34.62
2023-05-08T13:59:20.717Z,32.63
2023-05-08T14:01:47.399Z,31.61
2023-05-08T14:04:14.132Z,29.70
2023-05-08T14:06:40.744Z,33.32
2023-05-08T14:09:07.520Z,32.04
2023-05-08T14:11:34.148Z,31.73
2023-05-08T14:14:00.693Z,33.88
2023-05-08T14:16:28.372Z,34.30
2023-05-08T14:18:55.181Z,32.57
2023-05-08T14:21:21.779Z,29.29
2023-05-08T14:23:48.549Z,26.50
2023-05-08T14:26:15.050Z,24.92
2023-05-08T14:28:41.617Z,26.08
2023-05-08T14:31:08.323Z,28.08
2023-05-08T14:33:34.969Z,32.84
2023-05-08T14:36:01.624Z,33.69
2023-05-08T14:38:28.358Z,32.24
2023-05-08T14:40:54.993Z,31.67
2023-05-08T14:43:22.073Z,30.13
2023-05-08T14:45:49.216Z,28.38
2023-05-08T14:48:15.807Z,29.88
2023-05-08T14:50:42.758Z,32.63
2023-05-08T14:53:09.430Z,32.83
2023-05-08T14:55:37.362Z,31.02
2023-05-08T14:58:04.667Z,33.42
2023-05-08T15:00:31.230Z,35.65
2023-05-08T15:02:57.910Z,36.04
2023-05-08T15:05:24.866Z,33.67
2023-05-08T15:07:52.099Z,30.30
2023-05-08T15:10:18.584Z,29.56
2023-05-08T15:12:45.179Z,29.33
2023-05-08T15:15:12.020Z,29.36
2023-05-08T15:17:41.366Z,30.34
2023-05-08T15:20:08.589Z,30.54
2023-05-08T15:22:35.194Z,30.66
2023-05-08T15:25:02.793Z,30.57
2023-05-08T15:27:30.316Z,28.75
2023-05-08T15:29:57.339Z,29.85
2023-05-08T15:32:24.316Z,29.95
2023-05-08T15:34:50.868Z,31.81
2023-05-08T15:37:17.454Z,29.97
2023-05-08T15:39:43.930Z,30.76
2023-05-08T15:42:10.536Z,30.53
2023-05-08T15:44:54.180Z,32.10
2023-05-08T15:47:23.341Z,31.79
2023-05-08T15:49:53.941Z,35.76
2023-05-08T15:52:20.694Z,34.11
2023-05-08T15:54:47.319Z,31.54
2023-05-08T15:57:14.054Z,33.89
2023-05-08T15:59:40.601Z,35.73
2023-05-08T16:02:07.691Z,34.60
2023-05-08T16:04:34.367Z,37.68
2023-05-08T16:07:01.065Z,39.86
2023-05-08T16:09:27.622Z,39.57
2023-05-08T16:11:54.244Z,35.12
2023-05-08T16:14:20.715Z,37.74
2023-05-08T16:16:47.271Z,37.92
2023-05-08T16:19:14.932Z,32.16
2023-05-08T16:21:41.616Z,30.06
2023-05-08T16:24:08.181Z,30.60
2023-05-08T16:26:34.735Z,30.15
2023-05-08T16:29:01.936Z,30.70
2023-05-08T16:31:28.422Z,29.87
2023-05-08T16:33:55.026Z,30.02
2023-05-08T16:36:21.768Z,30.36
2023-05-08T16:38:48.312Z,31.13
2023-05-08T16:41:14.816Z,29.23
2023-05-08T16:43:41.587Z,29.57
2023-05-08T16:46:08.197Z,29.38
2023-05-08T16:48:34.862Z,30.81
2023-05-08T16:51:01.383Z,25.07
2023-05-08T16:53:27.964Z,21.77
2023-05-08T16:55:54.943Z,22.23
2023-05-08T16:58:22.918Z,24.85
2023-05-08T17:00:49.751Z,24.43
2023-05-08T17:03:16.672Z,24.37
2023-05-08T17:05:43.219Z,24.28
2023-05-08T17:08:11.732Z,23.86
2023-05-08T17:10:39.491Z,24.70
2023-05-08T17:13:05.969Z,26.13
2023-05-08T17:15:32.648Z,26.29
2023-05-08T17:17:59.478Z,27.39
2023-05-08T17:20:26.225Z,27.80
2023-05-08T17:22:53.402Z,27.97
2023-05-08T17:25:20.214Z,28.90
2023-05-08T17:27:46.902Z,28.70
2023-05-08T17:30:14.827Z,28.36
2023-05-08T17:32:41.718Z,28.14
2023-05-08T17:35:08.708Z,28.58
2023-05-08T17:37:35.250Z,27.82
2023-05-08T17:40:01.848Z,28.27
2023-05-08T17:42:28.633Z,28.80
2023-05-08T17:44:55.163Z,29.20
2023-05-08T17:47:21.712Z,29.58
2023-05-08T17:49:48.463Z,32.39
2023-05-08T17:52:15.592Z,32.83
2023-05-08T17:54:42.179Z,35.58
2023-05-08T17:57:08.667Z,35.56
2023-05-08T17:59:35.134Z,32.93
2023-05-08T18:02:01.794Z,33.05
2023-05-08T18:04:28.390Z,35.42
2023-05-08T18:06:54.922Z,35.82
2023-05-08T18:09:21.557Z,35.22
2023-05-08T18:11:48.178Z,35.53
2023-05-08T18:14:14.671Z,36.01
2023-05-08T18:16:41.183Z,35.60
2023-05-08T18:19:08.030Z,34.70
2023-05-08T18:21:34.709Z,34.00
2023-05-08T18:24:01.430Z,34.16
2023-05-08T18:26:28.030Z,34.08
2023-05-08T18:28:54.573Z,34.60
2023-05-08T18:31:21.118Z,33.99
2023-05-08T18:33:47.692Z,34.33
2023-05-08T18:36:14.213Z,34.65
2023-05-08T18:38:41.789Z,35.92
2023-05-08T18:41:08.294Z,36.75
2023-05-08T18:43:34.959Z,34.39
2023-05-08T18:46:07.352Z,35.46
2023-05-08T18:48:33.867Z,34.90
2023-05-08T18:51:00.624Z,35.66
2023-05-08T18:53:27.168Z,35.21
2023-05-08T18:55:53.702Z,35.36
2023-05-08T18:58:20.269Z,35.20
2023-05-08T19:00:46.851Z,35.94
2023-05-08T19:03:13.609Z,34.68
2023-05-08T19:05:43.120Z,34.94
2023-05-08T19:08:09.802Z,35.57
2023-05-08T19:10:36.381Z,34.55
2023-05-08T19:13:03.042Z,34.47
2023-05-08T19:15:29.655Z,34.07
2023-05-08T19:17:56.467Z,34.14
2023-05-08T19:20:23.032Z,34.68
2023-05-08T19:22:49.667Z,33.85
2023-05-08T19:25:16.480Z,34.73
2023-05-08T19:27:42.962Z,35.00
2023-05-08T19:30:10.017Z,33.49
2023-05-08T19:32:36.481Z,26.46
2023-05-08T19:35:03.061Z,32.66
2023-05-08T19:37:29.702Z,33.83
2023-05-08T19:39:56.498Z,34.22
2023-05-08T19:42:23.057Z,34.24
2023-05-08T19:44:49.810Z,32.24
2023-05-08T19:47:16.283Z,30.89
2023-05-08T19:49:42.779Z,30.07
2023-05-08T19:52:09.323Z,29.05
2023-05-08T19:54:35.888Z,27.81
2023-05-08T19:57:02.428Z,24.64
2023-05-08T19:59:29.200Z,17.28
2023-05-08T20:01:55.790Z,16.47
2023-05-08T20:04:24.072Z,15.08
2023-05-08T20:06:50.815Z,13.75
2023-05-08T20:09:17.377Z,12.75
2023-05-08T20:11:43.950Z,13.32
2023-05-08T20:14:10.911Z,13.28
2023-05-08T20:16:37.768Z,12.79
2023-05-08T20:19:04.460Z,13.18
2023-05-08T20:21:32.500Z,13.26
2023-05-08T20:23:59.627Z,13.07
2023-05-08T20:26:28.261Z,12.81
2023-05-08T20:28:54.792Z,13.00
2023-05-08T20:31:21.431Z,13.19
2023-05-08T20:33:48.058Z,13.20
2023-05-08T20:36:14.832Z,12.65
2023-05-08T20:38:41.393Z,12.74
2023-05-08T20:41:07.906Z,12.38
2023-05-08T20:43:34.480Z,12.28
2023-05-08T20:46:01.049Z,12.77
2023-05-08T20:48:27.709Z,12.59
2023-05-08T20:50:54.326Z,13.06
2023-05-08T20:53:20.976Z,12.75
2023-05-08T20:55:47.558Z,13.39
2023-05-08T20:58:14.096Z,13.63
2023-05-08T21:00:40.618Z,14.53
2023-05-08T21:03:07.211Z,13.94
2023-05-08T21:05:33.975Z,12.99
2023-05-08T21:08:02.409Z,12.75
2023-05-08T21:10:31.174Z,12.83
2023-05-08T21:12:57.904Z,14.13
2023-05-08T21:15:24.411Z,13.98
2023-05-08T21:17:51.226Z,14.16
2023-05-08T21:20:18.141Z,13.78
2023-05-08T21:22:46.232Z,13.78
2023-05-08T21:25:14.924Z,13.51
2023-05-08T21:27:42.140Z,13.53
2023-05-08T21:30:09.849Z,14.04
2023-05-08T21:32:36.379Z,14.01
2023-05-08T21:35:03.270Z,14.45
2023-05-08T21:37:31.529Z,14.56
2023-05-08T21:39:58.019Z,13.82
2023-05-08T21:42:24.620Z,13.33
2023-05-08T21:44:53.889Z,13.52
2023-05-08T21:47:22.256Z,13.97
2023-05-08T21:49:49.107Z,14.13
2023-05-08T21:52:18.312Z,14.50
2023-05-08T21:54:44.753Z,14.88
2023-05-08T21:57:11.298Z,15.37
2023-05-08T21:59:37.861Z,15.58
2023-05-08T22:02:04.430Z,15.30
2023-05-08T22:04:31.212Z,15.22
2023-05-08T22:06:57.761Z,14.76
2023-05-08T22:09:24.335Z,15.05
2023-05-08T22:11:51.370Z,15.45
2023-05-08T22:14:17.852Z,15.64
2023-05-08T22:16:44.432Z,15.11
2023-05-08T22:19:11.554Z,15.17
2023-05-08T22:21:38.148Z,15.99
2023-05-08T22:24:04.829Z,16.22
2023-05-08T22:26:31.328Z,15.98
2023-05-08T22:28:57.838Z,15.54
2023-05-08T22:31:24.429Z,16.32
2023-05-08T22:33:50.958Z,16.70
2023-05-08T22:36:18.778Z,15.81
2023-05-08T22:38:45.301Z,16.15
2023-05-08T22:41:11.835Z,17.25
2023-05-08T22:43:38.396Z,16.83
2023-05-08T22:46:05.814Z,17.81
2023-05-08T22:48:32.567Z,17.89
2023-05-08T22:50:59.220Z,17.71
2023-05-08T22:53:25.736Z,18.23
2023-05-08T22:55:52.573Z,17.37
2023-05-08T22:58:19.024Z,18.20
2023-05-08T23:00:45.540Z,19.26
2023-05-08T23:03:13.012Z,18.56
2023-05-08T23:05:39.497Z,19.93
2023-05-08T23:08:06.118Z,19.00
2023-05-08T23:10:32.634Z,19.95
2023-05-08T23:12:59.099Z,21.22
2023-05-08T23:15:25.789Z,21.65
2023-05-08T23:17:52.344Z,20.65
2023-05-08T23:20:19.078Z,21.62
2023-05-08T23:22:45.558Z,22.40
2023-05-08T23:25:12.402Z,21.70
2023-05-08T23:27:39.064Z,22.82
2023-05-08T23:30:06.065Z,24.09
2023-05-08T23:32:32.671Z,24.71
2023-05-08T23:34:59.153Z,25.93
2023-05-08T23:37:25.613Z,26.16
2023-05-08T23:39:52.111Z,28.38
2023-05-08T23:42:18.714Z,27.97
2023-05-08T23:44:45.150Z,28.12
2023-05-08T23:47:11.853Z,29.18
2023-05-08T23:49:38.334Z,30.54
2023-05-08T23:52:04.938Z,30.76
2023-05-08T23:54:31.483Z,30.20
2023-05-08T23:56:58.027Z,32.20
2023-05-08T23:59:24.558Z,33.17
